Philadelphia International Airport
KPHL : now visible

Airfield :











YOU CAN JOIN US ON...

 
LOGIN :

Register | Disclaimer

   EN    FR    IT 

 









Legend :    VFR   Marginal VFR   IFR   Intensive IFR   Very Intensive IFR
Visi :
Ceiling :
>= 8 km
>= 3000ft
5 to 8 km
1000 to 3000 ft
1500m to 5 km
500 to 1000 ft
800 to 1500m
200 to 500 ft
< 800m
< 200 ft
Symbols :   Thunderstorms  Fog  Heavy snow  Heavy precipitations  Wind > 20 kt






- Airport Elevation : 36 ft
- IATA code : PHL


KPHL - Philadelphia International

CURRENT METAR :
  • 211506Z 13003KT 1 1/2SM BR OVC003 17/16 A3030 RMK AO2 T01670161

EXPIRED METARs :
  • 211454Z 00000KT 1 1/4SM BR OVC002 16/16 A3030 RMK AO2 SLP261 T01610161 50007
  • 211418Z 00000KT 1 1/4SM BR OVC002 16/16 A3031 RMK AO2 T01560156
  • 211354Z 00000KT 3/4SM BR OVC002 16/15 A3031 RMK AO2 SLP262 T01560150 RVRNO
  • 211335Z 00000KT 3/4SM BR OVC002 16/15 A3031 RMK AO2 T01560150 RVRNO
  • 211254Z 11004KT 1SM BR OVC002 15/15 A3029 RMK AO2 SLP257 T01500150 RVRNO

TAF KPHL
Valid from the 21 at 16:00 until the 22 at 18:00 UTC


211545Z 2116/2218 19005KT 6SM BR BKN030
TEMPO 2116/2117 3SM BR OVC005
FM211800 22008KT P6SM FEW030 BKN200
FM220600 VRB02KT 5SM BR SCT010
FM221400 17004KT P6SM SCT040
KZDC FIR / North America



MET'MAP, your aeronautical weather chart ! - Copyright ORBIFLY December 2007 - Disclaimer

ORBIFLY MET'MAP TEAM :

Programming & Development : Alexandra Zaïnal
Concept & original design : Baudouin d'Aumeries
Assistance for programming : Marc-Olivier Méhu
Technical & hardware support : Manuel Goepfert

Contact : metmap@orbifly.com




SOURCES & CREDITS :

   NOAA       Earth
Advisory